createdAt,value
2018-05-26T00:02:02.096Z,90.00
2018-05-26T00:04:28.681Z,90.30
2018-05-26T00:06:55.597Z,89.70
2018-05-26T00:09:22.228Z,89.70
2018-05-26T00:11:48.839Z,89.30
2018-05-26T00:14:15.449Z,88.80
2018-05-26T00:16:42.041Z,88.80
2018-05-26T00:19:08.643Z,88.30
2018-05-26T00:21:35.241Z,88.40
2018-05-26T00:24:01.801Z,88.50
2018-05-26T00:26:28.377Z,88.00
2018-05-26T00:28:54.961Z,88.70
2018-05-26T00:31:21.926Z,88.80
2018-05-26T00:33:48.578Z,88.80
2018-05-26T00:36:15.197Z,88.50
2018-05-26T00:38:41.769Z,87.90
2018-05-26T00:41:08.753Z,88.90
2018-05-26T00:43:35.364Z,88.90
2018-05-26T00:46:02.293Z,89.20
2018-05-26T00:48:28.889Z,89.20
2018-05-26T00:50:55.432Z,89.30
2018-05-26T00:53:22.076Z,89.20
2018-05-26T00:55:48.814Z,89.40
2018-05-26T00:58:15.392Z,89.40
2018-05-26T01:00:42.009Z,89.00
2018-05-26T01:03:08.974Z,88.70
2018-05-26T01:05:35.932Z,88.50
2018-05-26T01:08:02.946Z,88.90
2018-05-26T01:10:29.501Z,88.90
2018-05-26T01:12:56.106Z,88.90
2018-05-26T01:15:22.677Z,90.10
2018-05-26T01:17:49.353Z,90.60
2018-05-26T01:20:16.339Z,90.70
2018-05-26T01:22:43.277Z,90.30
2018-05-26T01:25:09.878Z,90.30
2018-05-26T01:27:36.422Z,90.90
2018-05-26T01:30:03.050Z,91.40
2018-05-26T01:32:30.042Z,92.90
2018-05-26T01:34:56.598Z,92.90
2018-05-26T01:37:23.227Z,93.20
2018-05-26T01:39:49.838Z,92.80
2018-05-26T01:42:16.505Z,93.90
2018-05-26T01:44:43.113Z,94.10
2018-05-26T01:47:09.704Z,93.30
2018-05-26T01:49:36.285Z,92.90
2018-05-26T01:52:02.885Z,92.20
2018-05-26T01:54:29.852Z,91.60
2018-05-26T01:56:56.804Z,91.00
2018-05-26T01:59:23.756Z,90.10
2018-05-26T02:01:50.770Z,89.80
2018-05-26T02:04:17.386Z,89.80
2018-05-26T02:06:44.024Z,89.30
2018-05-26T02:09:10.613Z,88.40
2018-05-26T02:11:37.201Z,87.80
2018-05-26T02:14:03.793Z,88.40
2018-05-26T02:16:30.344Z,87.90
2018-05-26T02:18:56.928Z,88.30
2018-05-26T02:21:23.542Z,88.70
2018-05-26T02:23:50.179Z,88.90
2018-05-26T02:26:16.825Z,88.90
2018-05-26T02:28:43.402Z,88.90
2018-05-26T02:31:09.993Z,88.70
2018-05-26T02:33:36.957Z,88.60
2018-05-26T02:36:03.530Z,88.60
2018-05-26T02:38:30.112Z,89.30
2018-05-26T02:40:56.686Z,89.50
2018-05-26T02:43:23.744Z,89.80
2018-05-26T02:45:50.881Z,89.60
2018-05-26T02:48:18.089Z,89.40
2018-05-26T02:50:44.725Z,89.40
2018-05-26T02:53:11.650Z,88.60
2018-05-26T02:55:38.249Z,88.60
2018-05-26T02:58:04.824Z,88.90
2018-05-26T03:00:31.421Z,89.40
2018-05-26T03:02:58.384Z,89.10
2018-05-26T03:05:31.342Z,89.70
2018-05-26T03:08:04.012Z,89.70
2018-05-26T03:10:36.645Z,90.50
2018-05-26T03:13:09.356Z,92.60
2018-05-26T03:15:36.329Z,91.60
2018-05-26T03:18:11.533Z,91.60
2018-05-26T03:20:38.150Z,91.10
2018-05-26T03:23:04.741Z,90.70
2018-05-26T03:25:31.324Z,90.60
2018-05-26T03:27:57.921Z,90.30
2018-05-26T03:30:24.560Z,90.70
2018-05-26T03:32:51.195Z,90.00
2018-05-26T03:35:17.819Z,89.70
2018-05-26T03:37:44.413Z,90.70
2018-05-26T03:40:10.993Z,91.10
2018-05-26T03:42:37.939Z,90.80
2018-05-26T03:45:04.933Z,90.60
2018-05-26T03:47:31.484Z,90.60
2018-05-26T03:49:58.071Z,91.60
2018-05-26T03:52:24.721Z,91.50
2018-05-26T03:58:20.893Z,91.10
2018-05-26T04:00:47.582Z,91.10
2018-05-26T04:03:14.212Z,91.90
2018-05-26T04:05:40.769Z,92.10
2018-05-26T04:08:07.401Z,91.80
2018-05-26T04:10:34.340Z,92.10
2018-05-26T04:13:00.929Z,92.20
2018-05-26T04:15:27.512Z,92.40
2018-05-26T04:17:54.097Z,92.50
2018-05-26T04:20:20.756Z,92.10
2018-05-26T04:22:47.355Z,92.90
2018-05-26T04:25:13.997Z,92.60
2018-05-26T04:27:40.628Z,92.70
2018-05-26T04:30:07.562Z,91.80
2018-05-26T04:32:34.532Z,90.90
2018-05-26T04:35:01.068Z,90.90
2018-05-26T04:37:27.646Z,90.50
2018-05-26T04:39:54.251Z,89.90
2018-05-26T04:42:20.865Z,89.20
2018-05-26T04:44:47.551Z,89.90
2018-05-26T04:47:14.120Z,90.00
2018-05-26T04:49:40.724Z,89.40
2018-05-26T04:52:07.337Z,89.40
2018-05-26T04:54:33.925Z,89.70
2018-05-26T04:57:00.496Z,89.10
2018-05-26T04:59:27.041Z,88.50
2018-05-26T05:01:53.661Z,88.70
2018-05-26T05:04:20.303Z,88.60
2018-05-26T05:06:46.892Z,88.40
2018-05-26T05:09:13.477Z,88.00
2018-05-26T05:11:40.399Z,87.30
2018-05-26T05:14:07.009Z,87.30
2018-05-26T05:16:33.593Z,87.20
2018-05-26T05:19:00.185Z,87.60
2018-05-26T05:21:26.780Z,87.30
2018-05-26T05:23:53.357Z,87.50
2018-05-26T05:26:20.402Z,87.20
2018-05-26T05:28:47.086Z,87.30
2018-05-26T05:31:13.657Z,87.70
2018-05-26T05:33:40.269Z,87.50
2018-05-26T05:36:06.825Z,87.70
2018-05-26T05:38:33.425Z,87.90
2018-05-26T05:41:00.005Z,87.10
2018-05-26T05:43:26.917Z,87.20
2018-05-26T05:45:53.531Z,87.20
2018-05-26T05:48:20.173Z,87.90
2018-05-26T05:50:46.797Z,87.20
2018-05-26T05:53:13.806Z,83.70
2018-05-26T05:55:40.410Z,83.70
2018-05-26T05:58:07.004Z,83.10
2018-05-26T06:00:33.700Z,83.10
2018-05-26T06:03:00.290Z,82.80
2018-05-26T06:05:26.846Z,82.80
2018-05-26T06:07:53.453Z,82.40
2018-05-26T06:10:20.465Z,83.00
2018-05-26T06:12:47.057Z,82.90
2018-05-26T06:15:13.779Z,82.00
2018-05-26T06:17:40.452Z,82.50
2018-05-26T06:20:07.068Z,81.10
2018-05-26T06:22:33.713Z,81.40
2018-05-26T06:25:00.277Z,81.70
2018-05-26T06:27:26.876Z,81.40
2018-05-26T06:29:53.463Z,80.80
2018-05-26T06:32:20.133Z,80.40
2018-05-26T06:34:46.726Z,80.50
2018-05-26T06:37:13.310Z,78.30
2018-05-26T06:39:39.889Z,79.60
2018-05-26T06:42:06.457Z,80.00
2018-05-26T06:44:33.013Z,79.10
2018-05-26T06:46:59.603Z,77.20
2018-05-26T06:49:26.291Z,76.80
2018-05-26T06:51:53.362Z,76.60
2018-05-26T06:54:20.389Z,75.90
2018-05-26T06:56:46.998Z,75.90
2018-05-26T06:59:13.608Z,76.90
2018-05-26T07:01:40.569Z,77.10
2018-05-26T07:04:07.538Z,76.50
2018-05-26T07:06:34.129Z,76.50
2018-05-26T07:09:00.701Z,77.10
2018-05-26T07:11:27.293Z,78.80
2018-05-26T07:13:54.164Z,79.20
2018-05-26T07:16:20.817Z,79.10
2018-05-26T07:18:47.746Z,78.90
2018-05-26T07:21:14.626Z,79.70
2018-05-26T07:23:41.511Z,78.30
2018-05-26T07:26:08.405Z,77.90
2018-05-26T07:28:35.314Z,76.60
2018-05-26T07:31:02.195Z,76.70
2018-05-26T07:33:28.964Z,77.40
2018-05-26T07:35:55.751Z,76.00
2018-05-26T07:38:23.055Z,76.20
2018-05-26T07:40:49.980Z,76.20
2018-05-26T07:43:17.674Z,75.70
2018-05-26T07:45:44.241Z,76.40
2018-05-26T07:48:10.833Z,76.70
2018-05-26T07:50:37.448Z,76.50
2018-05-26T07:53:04.120Z,76.70
2018-05-26T07:55:30.686Z,76.90
2018-05-26T07:57:57.617Z,77.00
2018-05-26T08:00:24.251Z,77.10
2018-05-26T08:02:50.906Z,77.00
2018-05-26T08:05:17.515Z,77.10
2018-05-26T08:07:44.121Z,77.40
2018-05-26T08:10:10.685Z,76.90
2018-05-26T08:12:37.665Z,76.70
2018-05-26T08:15:04.277Z,76.70
2018-05-26T08:17:30.858Z,76.80
2018-05-26T08:19:57.440Z,76.80
2018-05-26T08:22:23.993Z,77.20
2018-05-26T08:24:50.665Z,77.10
2018-05-26T08:27:17.326Z,76.20
2018-05-26T08:29:43.935Z,76.10
2018-05-26T08:32:10.530Z,74.00
2018-05-26T08:34:37.469Z,74.10
2018-05-26T08:37:04.073Z,74.10
2018-05-26T08:39:30.657Z,75.60
2018-05-26T08:41:57.212Z,74.30
2018-05-26T08:44:23.822Z,74.70
2018-05-26T08:46:50.461Z,75.10
2018-05-26T08:49:17.068Z,75.50
2018-05-26T08:51:43.688Z,74.50
2018-05-26T08:54:10.540Z,74.30
2018-05-26T08:56:37.169Z,75.50
2018-05-26T08:59:03.728Z,74.60
2018-05-26T09:01:30.319Z,75.40
2018-05-26T09:03:57.285Z,74.20
2018-05-26T09:06:24.221Z,75.00
2018-05-26T09:08:50.849Z,75.00
2018-05-26T09:11:17.464Z,74.50
2018-05-26T09:13:44.643Z,74.40
2018-05-26T09:16:11.264Z,74.90
2018-05-26T09:18:37.863Z,72.60
2018-05-26T09:21:04.442Z,73.40
2018-05-26T09:23:31.373Z,72.30
2018-05-26T09:25:57.964Z,72.30
2018-05-26T09:28:24.939Z,72.80
2018-05-26T09:30:51.537Z,72.80
2018-05-26T09:33:18.172Z,73.60
2018-05-26T09:35:44.805Z,72.60
2018-05-26T09:38:11.377Z,71.00
2018-05-26T09:40:37.980Z,71.40
2018-05-26T09:43:04.549Z,72.10
2018-05-26T09:45:31.397Z,71.60
2018-05-26T09:47:58.312Z,71.40
2018-05-26T09:50:25.498Z,71.30
2018-05-26T09:52:52.392Z,71.30
2018-05-26T09:55:19.721Z,73.10
2018-05-26T09:57:46.631Z,73.10
2018-05-26T10:00:13.905Z,72.00
2018-05-26T10:02:41.074Z,72.00
2018-05-26T10:05:10.526Z,72.90
2018-05-26T10:07:38.296Z,72.90
2018-05-26T10:10:05.171Z,71.40
2018-05-26T10:12:32.057Z,70.20
2018-05-26T10:15:06.005Z,71.10
2018-05-26T10:17:32.652Z,71.70
2018-05-26T10:19:59.602Z,70.30
2018-05-26T10:22:26.513Z,70.20
2018-05-26T10:24:53.096Z,70.80
2018-05-26T10:27:20.138Z,69.40
2018-05-26T10:29:46.816Z,69.50
2018-05-26T10:32:13.459Z,69.20
2018-05-26T10:34:40.017Z,70.50
2018-05-26T10:37:07.069Z,67.80
2018-05-26T10:39:33.677Z,67.80
2018-05-26T10:42:00.275Z,67.80
2018-05-26T10:44:26.908Z,67.70
2018-05-26T10:46:53.877Z,67.70
2018-05-26T10:49:20.821Z,68.80
2018-05-26T10:51:47.806Z,66.80
2018-05-26T10:54:14.434Z,66.80
2018-05-26T10:56:41.381Z,65.90
2018-05-26T10:59:08.370Z,67.30
2018-05-26T11:01:34.930Z,67.30
2018-05-26T11:04:01.525Z,66.70
2018-05-26T11:06:36.069Z,65.70
2018-05-26T11:09:03.153Z,65.60
2018-05-26T11:11:29.770Z,65.60
2018-05-26T11:13:56.354Z,66.70
2018-05-26T11:16:23.082Z,65.30
2018-05-26T11:18:49.717Z,65.60
2018-05-26T11:21:16.309Z,66.30
2018-05-26T11:23:42.914Z,63.70
2018-05-26T11:26:09.506Z,62.50
2018-05-26T11:28:36.104Z,63.60
2018-05-26T11:31:02.817Z,64.10
2018-05-26T11:33:29.733Z,60.80
2018-05-26T11:35:56.696Z,62.40
2018-05-26T11:38:23.674Z,61.10
2018-05-26T11:40:50.297Z,61.10
2018-05-26T11:43:17.297Z,61.20
2018-05-26T11:45:43.903Z,61.20
2018-05-26T11:48:10.881Z,59.70
2018-05-26T11:50:37.459Z,59.80
2018-05-26T11:53:04.087Z,58.80
2018-05-26T11:55:30.701Z,60.60
2018-05-26T11:57:57.329Z,58.50
2018-05-26T12:00:23.946Z,56.10
2018-05-26T12:02:50.555Z,58.90
2018-05-26T12:05:17.577Z,60.10
2018-05-26T12:07:44.149Z,60.10
2018-05-26T12:10:10.741Z,61.90
2018-05-26T12:12:37.364Z,61.00
2018-05-26T12:15:03.941Z,60.70
2018-05-26T12:17:30.600Z,60.60
2018-05-26T12:19:57.128Z,58.20
2018-05-26T12:22:23.730Z,58.00
2018-05-26T12:24:50.369Z,58.70
2018-05-26T12:27:17.341Z,59.20
2018-05-26T12:29:44.317Z,59.40
2018-05-26T12:32:11.249Z,59.50
2018-05-26T12:34:37.868Z,59.50
2018-05-26T12:37:04.473Z,58.00
2018-05-26T12:39:31.394Z,58.60
2018-05-26T12:41:57.985Z,58.60
2018-05-26T12:44:24.548Z,58.00
2018-05-26T12:46:51.208Z,56.80
2018-05-26T12:49:17.865Z,54.60
2018-05-26T12:51:44.445Z,56.80
2018-05-26T12:54:11.038Z,57.20
2018-05-26T12:56:37.643Z,58.20
2018-05-26T12:59:04.242Z,57.60
2018-05-26T13:01:30.825Z,57.80
2018-05-26T13:03:57.389Z,59.40
2018-05-26T13:06:23.989Z,57.70
2018-05-26T13:08:50.678Z,58.10
2018-05-26T13:11:17.268Z,58.40
2018-05-26T13:13:43.853Z,58.40
2018-05-26T13:16:10.401Z,57.70
2018-05-26T13:18:36.998Z,58.50
2018-05-26T13:21:03.949Z,57.50
2018-05-26T13:23:30.909Z,57.00
2018-05-26T13:25:57.870Z,58.00
2018-05-26T13:28:24.837Z,57.60
2018-05-26T13:30:51.509Z,57.50
2018-05-26T13:33:18.191Z,57.80
2018-05-26T13:35:44.801Z,58.10
2018-05-26T13:38:11.361Z,58.90
2018-05-26T13:40:37.972Z,58.20
2018-05-26T13:43:04.959Z,58.10
2018-05-26T13:45:31.522Z,58.20
2018-05-26T13:47:58.114Z,58.80
2018-05-26T13:50:24.723Z,58.60
2018-05-26T13:52:51.344Z,58.10
2018-05-26T13:55:18.059Z,59.00
2018-05-26T13:57:44.653Z,58.10
2018-05-26T14:00:11.283Z,55.90
2018-05-26T14:02:37.879Z,55.30
2018-05-26T14:05:04.564Z,56.70
2018-05-26T14:07:31.545Z,54.90
2018-05-26T14:09:58.101Z,54.90
2018-05-26T14:12:24.702Z,55.10
2018-05-26T14:14:51.342Z,55.30
2018-05-26T14:17:18.078Z,53.90
2018-05-26T14:19:44.680Z,55.10
2018-05-26T14:22:11.625Z,55.80
2018-05-26T14:24:38.625Z,55.80
2018-05-26T14:27:05.189Z,55.80
2018-05-26T14:29:31.785Z,55.20
2018-05-26T14:31:58.782Z,54.90
2018-05-26T14:34:25.360Z,54.90
2018-05-26T14:36:52.019Z,53.90
2018-05-26T14:39:18.677Z,53.50
2018-05-26T14:41:45.305Z,51.70
2018-05-26T14:44:11.919Z,53.20
2018-05-26T14:46:38.501Z,52.90
2018-05-26T14:49:05.145Z,53.60
2018-05-26T14:51:31.696Z,53.90
2018-05-26T14:53:58.297Z,54.20
2018-05-26T14:56:24.890Z,54.60
2018-05-26T14:58:51.571Z,55.10
2018-05-26T15:01:18.583Z,55.90
2018-05-26T15:03:45.173Z,55.90
2018-05-26T15:06:11.774Z,54.90
2018-05-26T15:08:38.370Z,53.10
2018-05-26T15:11:05.341Z,53.90
2018-05-26T15:13:32.302Z,52.60
2018-05-26T15:15:58.865Z,52.60
2018-05-26T15:18:25.466Z,53.00
2018-05-26T15:20:52.053Z,52.80
2018-05-26T15:23:18.757Z,53.80
2018-05-26T15:25:45.447Z,53.50
2018-05-26T15:28:12.032Z,52.60
2018-05-26T15:30:38.669Z,50.70
2018-05-26T15:33:05.237Z,51.00
2018-05-26T15:35:31.832Z,52.20
2018-05-26T15:37:58.797Z,53.70
2018-05-26T15:40:25.733Z,54.20
2018-05-26T15:42:52.398Z,54.10
2018-05-26T15:45:19.465Z,54.50
2018-05-26T15:47:46.089Z,54.30
2018-05-26T15:50:13.058Z,56.00
2018-05-26T15:52:39.992Z,58.10
2018-05-26T15:55:06.622Z,58.10
2018-05-26T15:57:33.228Z,59.00
2018-05-26T15:59:59.873Z,57.10
2018-05-26T16:02:26.809Z,58.80
2018-05-26T16:04:53.776Z,58.50
2018-05-26T16:07:20.818Z,56.70
2018-05-26T16:09:47.837Z,56.80
2018-05-26T16:12:14.413Z,56.80
2018-05-26T16:14:41.001Z,58.20
2018-05-26T16:17:07.581Z,59.40
2018-05-26T16:19:34.194Z,59.20
2018-05-26T16:22:00.785Z,60.70
2018-05-26T16:24:27.337Z,60.00
2018-05-26T16:26:53.972Z,59.20
2018-05-26T16:29:20.747Z,60.10
2018-05-26T16:31:47.393Z,59.80
2018-05-26T16:34:14.013Z,60.40
2018-05-26T16:36:40.569Z,58.10
2018-05-26T16:39:07.226Z,58.80
2018-05-26T16:41:33.814Z,58.20
2018-05-26T16:44:00.410Z,60.40
2018-05-26T16:46:26.957Z,60.00
2018-05-26T16:48:53.609Z,61.40
2018-05-26T16:51:20.315Z,62.30
2018-05-26T16:53:46.934Z,62.00
2018-05-26T16:56:13.541Z,63.00
2018-05-26T16:58:40.101Z,63.00
2018-05-26T17:01:06.811Z,63.00
2018-05-26T17:03:33.841Z,66.80
2018-05-26T17:06:00.489Z,66.80
2018-05-26T17:08:27.098Z,67.00
2018-05-26T17:10:53.698Z,68.20
2018-05-26T17:13:20.381Z,68.60
2018-05-26T17:15:47.016Z,68.60
2018-05-26T17:18:13.583Z,68.80
2018-05-26T17:20:40.172Z,68.20
2018-05-26T17:23:06.769Z,69.00
2018-05-26T17:25:33.362Z,68.90
2018-05-26T17:27:59.952Z,68.90
2018-05-26T17:30:26.886Z,69.50
2018-05-26T17:32:53.529Z,69.50
2018-05-26T17:35:20.138Z,69.00
2018-05-26T17:37:46.755Z,69.20
2018-05-26T17:40:13.374Z,69.50
2018-05-26T17:42:39.941Z,69.80
2018-05-26T17:45:06.555Z,69.90
2018-05-26T17:47:33.115Z,70.60
2018-05-26T17:49:59.714Z,70.20
2018-05-26T17:52:26.302Z,71.40
2018-05-26T17:54:52.898Z,71.10
2018-05-26T17:57:19.609Z,72.30
2018-05-26T17:59:46.189Z,72.90
2018-05-26T18:02:13.158Z,72.90
2018-05-26T18:04:40.121Z,72.80
2018-05-26T18:07:07.130Z,72.40
2018-05-26T18:09:33.732Z,72.40
2018-05-26T18:12:00.296Z,72.60
2018-05-26T18:14:26.896Z,72.40
2018-05-26T18:16:53.506Z,72.80
2018-05-26T18:19:20.135Z,72.90
2018-05-26T18:21:46.769Z,72.90
2018-05-26T18:24:13.377Z,73.10
2018-05-26T18:26:39.933Z,72.80
2018-05-26T18:29:06.589Z,72.40
2018-05-26T18:31:33.533Z,72.60
2018-05-26T18:34:00.128Z,72.60
2018-05-26T18:36:26.733Z,72.70
2018-05-26T18:38:53.317Z,72.80
2018-05-26T18:41:20.357Z,72.50
2018-05-26T18:43:47.370Z,72.30
2018-05-26T18:46:13.974Z,72.30
2018-05-26T18:48:40.971Z,72.00
2018-05-26T18:51:07.571Z,72.00
2018-05-26T18:53:34.537Z,71.70
2018-05-26T18:56:01.473Z,72.20
2018-05-26T18:58:28.074Z,72.20
2018-05-26T19:00:54.669Z,72.10
2018-05-26T19:03:21.281Z,72.50
2018-05-26T19:05:47.952Z,72.10
2018-05-26T19:08:14.557Z,71.90
2018-05-26T19:10:41.174Z,71.40
2018-05-26T19:13:08.173Z,71.60
2018-05-26T19:15:34.757Z,71.60
2018-05-26T19:18:01.353Z,71.80
2018-05-26T19:20:27.921Z,72.30
2018-05-26T19:22:54.560Z,72.50
2018-05-26T19:25:21.198Z,72.30
2018-05-26T19:27:47.841Z,72.70
2018-05-26T19:30:14.456Z,73.40
2018-05-26T19:32:41.026Z,73.60
2018-05-26T19:35:08.025Z,73.20
2018-05-26T19:37:34.579Z,73.20
2018-05-26T19:40:01.169Z,73.60
2018-05-26T19:42:27.769Z,74.20
2018-05-26T19:44:54.340Z,74.70
2018-05-26T19:47:21.000Z,75.10
2018-05-26T19:49:47.746Z,75.20
2018-05-26T19:52:14.729Z,75.90
2018-05-26T19:54:41.697Z,76.40
2018-05-26T19:57:08.665Z,76.80
2018-05-26T19:59:35.249Z,76.80
2018-05-26T20:02:01.812Z,77.00
2018-05-26T20:04:28.393Z,77.30
2018-05-26T20:06:55.445Z,77.40
2018-05-26T20:09:22.401Z,77.70
2018-05-26T20:11:49.489Z,77.20
2018-05-26T20:14:16.066Z,77.20
2018-05-26T20:16:43.070Z,77.20
2018-05-26T20:19:09.688Z,77.50
2018-05-26T20:21:36.641Z,78.20
2018-05-26T20:24:03.603Z,77.90
2018-05-26T20:26:30.546Z,78.00
2018-05-26T20:28:57.149Z,78.00
2018-05-26T20:31:24.069Z,78.20
2018-05-26T20:33:50.700Z,78.20
2018-05-26T20:36:17.293Z,77.90
2018-05-26T20:38:43.857Z,78.40
2018-05-26T20:41:10.458Z,78.70
2018-05-26T20:43:37.097Z,79.70
2018-05-26T20:46:03.689Z,80.00
2018-05-26T20:48:30.304Z,80.70
2018-05-26T20:50:56.889Z,80.50
2018-05-26T20:53:23.848Z,80.70
2018-05-26T20:55:57.830Z,80.90
2018-05-26T20:58:24.423Z,80.90
2018-05-26T21:00:51.029Z,81.00
2018-05-26T21:03:17.962Z,80.90
2018-05-26T21:05:44.574Z,80.90
2018-05-26T21:08:11.225Z,80.80
2018-05-26T21:10:37.921Z,80.80
2018-05-26T21:13:04.681Z,80.50
2018-05-26T21:15:31.309Z,81.10
2018-05-26T21:17:58.174Z,81.30
2018-05-26T21:20:24.750Z,82.20
2018-05-26T21:22:51.349Z,82.80
2018-05-26T21:25:17.953Z,83.10
2018-05-26T21:27:44.921Z,83.60
2018-05-26T21:30:11.573Z,83.60
2018-05-26T21:32:38.511Z,83.50
2018-05-26T21:35:05.140Z,83.50
2018-05-26T21:37:31.746Z,83.50
2018-05-26T21:39:58.313Z,83.40
2018-05-26T21:42:25.277Z,83.40
2018-05-26T21:44:51.865Z,83.40
2018-05-26T21:47:18.832Z,83.50
2018-05-26T21:49:45.793Z,84.00
2018-05-26T21:52:12.377Z,84.00
2018-05-26T21:54:38.970Z,83.60
2018-05-26T21:57:05.529Z,84.10
2018-05-26T21:59:32.138Z,83.90
2018-05-26T22:01:59.121Z,83.70
2018-05-26T22:04:25.685Z,83.70
2018-05-26T22:06:52.265Z,83.50
2018-05-26T22:09:18.836Z,83.50
2018-05-26T22:11:45.449Z,83.70
2018-05-26T22:14:12.471Z,83.50
2018-05-26T22:16:39.033Z,83.50
2018-05-26T22:19:05.653Z,83.70
2018-05-26T22:21:32.209Z,83.60
2018-05-26T22:23:58.804Z,83.40
2018-05-26T22:26:25.417Z,83.40
2018-05-26T22:28:52.345Z,83.30
2018-05-26T22:31:18.950Z,83.30
2018-05-26T22:33:45.884Z,83.40
2018-05-26T22:36:12.524Z,83.40
2018-05-26T22:38:39.113Z,83.80
2018-05-26T22:41:05.669Z,83.70
2018-05-26T22:43:32.264Z,83.70
2018-05-26T22:45:58.825Z,84.00
2018-05-26T22:48:25.787Z,84.70
2018-05-26T22:50:52.741Z,84.90
2018-05-26T22:53:19.308Z,84.90
2018-05-26T22:55:46.272Z,84.30
2018-05-26T22:58:13.208Z,84.10
2018-05-26T23:00:39.793Z,84.10
2018-05-26T23:03:06.392Z,84.50
2018-05-26T23:05:32.953Z,84.40
2018-05-26T23:07:59.545Z,84.30
2018-05-26T23:10:26.094Z,84.80
2018-05-26T23:12:52.753Z,85.60
2018-05-26T23:15:19.425Z,85.30
2018-05-26T23:17:46.026Z,84.90
2018-05-26T23:20:20.181Z,85.00
2018-05-26T23:22:47.109Z,85.80
2018-05-26T23:25:13.738Z,85.80
2018-05-26T23:27:40.341Z,85.90
2018-05-26T23:30:06.906Z,86.30
2018-05-26T23:32:33.489Z,86.90
2018-05-26T23:35:00.062Z,86.70
2018-05-26T23:37:26.652Z,86.50
2018-05-26T23:39:53.253Z,86.60
2018-05-26T23:42:20.211Z,85.90
2018-05-26T23:44:46.817Z,85.90
2018-05-26T23:47:13.369Z,85.70
2018-05-26T23:49:39.942Z,85.60
2018-05-26T23:52:06.529Z,85.40
2018-05-26T23:54:33.114Z,85.50
2018-05-26T23:56:59.681Z,85.50
2018-05-26T23:59:26.653Z,85.20
